sensor_id;sensor_type;location;lat;lon;timestamp;pressure;altitude;pressure_sealevel;temperature;humidity
21828;BME280;11076;47.942;11.804;2024-02-21T00:03:02;95228.88;;;2.49;39.00
21828;BME280;11076;47.942;11.804;2024-02-21T00:08:06;95223.38;;;2.44;39.01
21828;BME280;11076;47.942;11.804;2024-02-21T00:13:09;95227.13;;;2.62;38.50
21828;BME280;11076;47.942;11.804;2024-02-21T00:18:11;95219.94;;;2.74;38.46
21828;BME280;11076;47.942;11.804;2024-02-21T00:23:14;95212.19;;;2.66;38.69
21828;BME280;11076;47.942;11.804;2024-02-21T00:28:16;95211.75;;;2.69;38.47
21828;BME280;11076;47.942;11.804;2024-02-21T00:33:19;95212.97;;;2.48;38.83
21828;BME280;11076;47.942;11.804;2024-02-21T00:38:21;95217.09;;;2.50;38.28
21828;BME280;11076;47.942;11.804;2024-02-21T00:43:24;95205.03;;;2.78;37.90
21828;BME280;11076;47.942;11.804;2024-02-21T00:48:26;95194.34;;;3.02;38.18
21828;BME280;11076;47.942;11.804;2024-02-21T00:53:29;95183.91;;;2.94;37.99
21828;BME280;11076;47.942;11.804;2024-02-21T00:58:31;95179.00;;;3.21;37.46
21828;BME280;11076;47.942;11.804;2024-02-21T01:03:34;95181.03;;;3.07;37.66
21828;BME280;11076;47.942;11.804;2024-02-21T01:08:36;95174.19;;;2.93;37.75
21828;BME280;11076;47.942;11.804;2024-02-21T01:13:39;95166.25;;;2.98;37.73
21828;BME280;11076;47.942;11.804;2024-02-21T01:18:41;95162.91;;;2.65;38.10
21828;BME280;11076;47.942;11.804;2024-02-21T01:23:43;95170.53;;;2.87;38.11
21828;BME280;11076;47.942;11.804;2024-02-21T01:28:46;95164.78;;;2.83;37.55
21828;BME280;11076;47.942;11.804;2024-02-21T01:33:48;95157.69;;;2.70;37.89
21828;BME280;11076;47.942;11.804;2024-02-21T01:38:51;95156.66;;;3.02;37.62
21828;BME280;11076;47.942;11.804;2024-02-21T01:43:53;95143.50;;;2.94;37.71
21828;BME280;11076;47.942;11.804;2024-02-21T01:48:56;95136.03;;;2.96;37.55
21828;BME280;11076;47.942;11.804;2024-02-21T01:53:59;95137.59;;;3.03;37.54
21828;BME280;11076;47.942;11.804;2024-02-21T01:59:02;95135.97;;;3.02;37.68
21828;BME280;11076;47.942;11.804;2024-02-21T02:04:04;95130.19;;;2.99;37.83
21828;BME280;11076;47.942;11.804;2024-02-21T02:09:07;95121.09;;;2.81;37.73
21828;BME280;11076;47.942;11.804;2024-02-21T02:14:09;95122.25;;;2.74;37.46
21828;BME280;11076;47.942;11.804;2024-02-21T02:19:12;95122.72;;;3.01;37.36
21828;BME280;11076;47.942;11.804;2024-02-21T02:24:16;95108.81;;;3.16;37.28
21828;BME280;11076;47.942;11.804;2024-02-21T02:29:18;95098.66;;;3.29;37.03
21828;BME280;11076;47.942;11.804;2024-02-21T02:34:21;95091.66;;;3.28;37.03
21828;BME280;11076;47.942;11.804;2024-02-21T02:39:23;95076.09;;;3.42;37.04
21828;BME280;11076;47.942;11.804;2024-02-21T02:44:26;95073.59;;;3.17;36.99
21828;BME280;11076;47.942;11.804;2024-02-21T02:49:28;95068.34;;;3.22;36.95
21828;BME280;11076;47.942;11.804;2024-02-21T02:54:31;95056.59;;;3.05;37.24
21828;BME280;11076;47.942;11.804;2024-02-21T02:59:33;95057.56;;;3.22;37.18
21828;BME280;11076;47.942;11.804;2024-02-21T03:04:36;95053.47;;;3.31;36.98
21828;BME280;11076;47.942;11.804;2024-02-21T03:09:38;95044.44;;;3.38;36.94
21828;BME280;11076;47.942;11.804;2024-02-21T03:14:40;95036.50;;;3.43;36.75
21828;BME280;11076;47.942;11.804;2024-02-21T03:19:43;95032.47;;;3.22;37.02
21828;BME280;11076;47.942;11.804;2024-02-21T03:24:45;95032.41;;;3.28;37.26
21828;BME280;11076;47.942;11.804;2024-02-21T03:29:48;95029.72;;;3.40;36.61
21828;BME280;11076;47.942;11.804;2024-02-21T03:34:50;95026.31;;;3.45;36.76
21828;BME280;11076;47.942;11.804;2024-02-21T03:39:52;95039.78;;;3.45;36.45
21828;BME280;11076;47.942;11.804;2024-02-21T03:44:55;95042.94;;;3.65;36.45
21828;BME280;11076;47.942;11.804;2024-02-21T03:49:58;95039.66;;;3.63;36.48
21828;BME280;11076;47.942;11.804;2024-02-21T03:55:02;95039.47;;;3.77;36.04
21828;BME280;11076;47.942;11.804;2024-02-21T04:00:05;95030.78;;;3.86;35.93
21828;BME280;11076;47.942;11.804;2024-02-21T04:05:09;95042.00;;;3.71;36.30
21828;BME280;11076;47.942;11.804;2024-02-21T04:10:13;95033.03;;;3.78;36.41
21828;BME280;11076;47.942;11.804;2024-02-21T04:15:16;95023.75;;;3.74;36.25
21828;BME280;11076;47.942;11.804;2024-02-21T04:20:19;95024.38;;;3.76;36.51
21828;BME280;11076;47.942;11.804;2024-02-21T04:25:21;95019.75;;;3.64;36.43
21828;BME280;11076;47.942;11.804;2024-02-21T04:30:24;95008.81;;;3.24;37.06
21828;BME280;11076;47.942;11.804;2024-02-21T04:35:26;95014.75;;;2.90;37.39
21828;BME280;11076;47.942;11.804;2024-02-21T04:40:28;95003.41;;;2.88;37.91
21828;BME280;11076;47.942;11.804;2024-02-21T04:45:31;95001.88;;;2.93;37.41
21828;BME280;11076;47.942;11.804;2024-02-21T04:50:33;94994.41;;;2.95;36.94
21828;BME280;11076;47.942;11.804;2024-02-21T04:55:36;94984.59;;;3.12;36.80
21828;BME280;11076;47.942;11.804;2024-02-21T05:00:38;94982.00;;;3.17;36.60
21828;BME280;11076;47.942;11.804;2024-02-21T05:05:41;94981.22;;;2.63;37.60
21828;BME280;11076;47.942;11.804;2024-02-21T05:10:43;94978.25;;;2.95;36.59
21828;BME280;11076;47.942;11.804;2024-02-21T05:15:46;94969.53;;;2.69;36.67
21828;BME280;11076;47.942;11.804;2024-02-21T05:20:48;94954.84;;;2.53;36.53
21828;BME280;11076;47.942;11.804;2024-02-21T05:25:51;94953.06;;;2.17;36.87
21828;BME280;11076;47.942;11.804;2024-02-21T05:30:53;94956.06;;;1.90;37.19
21828;BME280;11076;47.942;11.804;2024-02-21T05:35:55;94939.66;;;1.80;37.14
21828;BME280;11076;47.942;11.804;2024-02-21T05:40:58;94939.59;;;1.49;37.45
21828;BME280;11076;47.942;11.804;2024-02-21T05:46:00;94933.19;;;1.32;37.47
21828;BME280;11076;47.942;11.804;2024-02-21T05:51:03;94924.09;;;1.33;37.59
21828;BME280;11076;47.942;11.804;2024-02-21T05:56:13;94917.88;;;1.32;37.52
21828;BME280;11076;47.942;11.804;2024-02-21T06:01:15;94910.22;;;1.11;38.00
21828;BME280;11076;47.942;11.804;2024-02-21T06:06:18;94910.00;;;1.12;38.05
21828;BME280;11076;47.942;11.804;2024-02-21T06:11:20;94903.69;;;1.25;37.97
21828;BME280;11076;47.942;11.804;2024-02-21T06:16:23;94901.16;;;1.30;37.96
21828;BME280;11076;47.942;11.804;2024-02-21T06:21:29;94886.47;;;1.51;37.85
21828;BME280;11076;47.942;11.804;2024-02-21T06:26:31;94893.56;;;1.46;38.88
21828;BME280;11076;47.942;11.804;2024-02-21T06:31:35;94891.44;;;1.85;39.14
21828;BME280;11076;47.942;11.804;2024-02-21T06:36:38;94886.03;;;2.03;38.78
21828;BME280;11076;47.942;11.804;2024-02-21T06:41:40;94877.63;;;2.11;38.67
21828;BME280;11076;47.942;11.804;2024-02-21T06:46:43;94878.91;;;2.09;38.36
21828;BME280;11076;47.942;11.804;2024-02-21T06:51:45;94870.81;;;2.39;38.25
21828;BME280;11076;47.942;11.804;2024-02-21T06:56:48;94870.78;;;2.81;38.61
21828;BME280;11076;47.942;11.804;2024-02-21T07:01:53;94878.53;;;3.65;38.15
21828;BME280;11076;47.942;11.804;2024-02-21T07:06:57;94875.34;;;3.92;38.17
21828;BME280;11076;47.942;11.804;2024-02-21T07:11:59;94872.50;;;4.27;37.77
21828;BME280;11076;47.942;11.804;2024-02-21T07:17:02;94863.81;;;4.42;37.49
21828;BME280;11076;47.942;11.804;2024-02-21T07:22:04;94856.22;;;4.73;37.30
21828;BME280;11076;47.942;11.804;2024-02-21T07:27:06;94857.31;;;4.89;36.96
21828;BME280;11076;47.942;11.804;2024-02-21T07:32:09;94858.63;;;4.86;36.77
21828;BME280;11076;47.942;11.804;2024-02-21T07:37:11;94869.09;;;5.00;35.95
21828;BME280;11076;47.942;11.804;2024-02-21T07:42:14;94877.16;;;4.49;35.17
21828;BME280;11076;47.942;11.804;2024-02-21T07:47:17;94875.63;;;4.70;35.69
21828;BME280;11076;47.942;11.804;2024-02-21T07:52:21;94870.00;;;4.88;35.56
21828;BME280;11076;47.942;11.804;2024-02-21T07:57:23;94846.06;;;5.31;35.33
21828;BME280;11076;47.942;11.804;2024-02-21T08:02:25;94834.31;;;5.86;34.84
21828;BME280;11076;47.942;11.804;2024-02-21T08:07:28;94823.19;;;6.37;34.58
21828;BME280;11076;47.942;11.804;2024-02-21T08:12:31;94817.56;;;6.44;34.50
21828;BME280;11076;47.942;11.804;2024-02-21T08:17:36;94799.88;;;6.36;34.04
21828;BME280;11076;47.942;11.804;2024-02-21T08:22:39;94791.75;;;6.31;34.04
21828;BME280;11076;47.942;11.804;2024-02-21T08:27:41;94780.75;;;5.83;34.37
21828;BME280;11076;47.942;11.804;2024-02-21T08:32:44;94763.34;;;6.01;34.08
21828;BME280;11076;47.942;11.804;2024-02-21T08:37:46;94761.13;;;5.98;34.38
21828;BME280;11076;47.942;11.804;2024-02-21T08:42:50;94755.38;;;6.17;34.09
21828;BME280;11076;47.942;11.804;2024-02-21T08:47:52;94751.47;;;6.40;33.80
21828;BME280;11076;47.942;11.804;2024-02-21T08:52:55;94741.19;;;6.74;33.74
21828;BME280;11076;47.942;11.804;2024-02-21T08:57:57;94753.38;;;7.19;33.18
21828;BME280;11076;47.942;11.804;2024-02-21T09:03:00;94751.19;;;7.21;33.16
21828;BME280;11076;47.942;11.804;2024-02-21T09:08:02;94743.63;;;7.23;32.84
21828;BME280;11076;47.942;11.804;2024-02-21T09:13:06;94744.25;;;7.41;32.63
21828;BME280;11076;47.942;11.804;2024-02-21T09:18:10;94747.66;;;7.84;31.26
21828;BME280;11076;47.942;11.804;2024-02-21T09:23:13;94746.03;;;7.88;31.46
21828;BME280;11076;47.942;11.804;2024-02-21T09:28:15;94750.34;;;7.79;31.31
21828;BME280;11076;47.942;11.804;2024-02-21T09:33:18;94758.50;;;7.79;30.48
21828;BME280;11076;47.942;11.804;2024-02-21T09:38:21;94763.38;;;7.77;30.24
21828;BME280;11076;47.942;11.804;2024-02-21T09:43:24;94758.00;;;7.92;30.55
21828;BME280;11076;47.942;11.804;2024-02-21T09:48:42;94758.00;;;8.23;30.36
21828;BME280;11076;47.942;11.804;2024-02-21T09:53:50;94754.69;;;7.75;30.17
21828;BME280;11076;47.942;11.804;2024-02-21T09:58:57;94758.50;;;7.79;30.15
21828;BME280;11076;47.942;11.804;2024-02-21T10:03:59;94751.50;;;8.14;29.40
21828;BME280;11076;47.942;11.804;2024-02-21T10:09:03;94748.81;;;8.14;28.87
21828;BME280;11076;47.942;11.804;2024-02-21T10:14:08;94750.44;;;8.35;28.74
21828;BME280;11076;47.942;11.804;2024-02-21T10:19:18;94746.63;;;8.41;28.36
21828;BME280;11076;47.942;11.804;2024-02-21T10:24:29;94739.03;;;8.43;28.01
21828;BME280;11076;47.942;11.804;2024-02-21T10:29:32;94731.16;;;8.42;25.94
21828;BME280;11076;47.942;11.804;2024-02-21T10:34:36;94722.47;;;8.55;26.33
21828;BME280;11076;47.942;11.804;2024-02-21T10:39:39;94724.34;;;8.65;26.46
21828;BME280;11076;47.942;11.804;2024-02-21T10:44:43;94720.13;;;9.24;26.75
21828;BME280;11076;47.942;11.804;2024-02-21T10:49:49;94710.38;;;9.18;26.34
21828;BME280;11076;47.942;11.804;2024-02-21T10:55:03;94694.84;;;9.29;26.29
21828;BME280;11076;47.942;11.804;2024-02-21T11:00:07;94682.25;;;9.48;25.99
21828;BME280;11076;47.942;11.804;2024-02-21T11:05:13;94678.34;;;9.70;26.35
21828;BME280;11076;47.942;11.804;2024-02-21T11:10:22;94660.34;;;9.79;25.50
21828;BME280;11076;47.942;11.804;2024-02-21T11:15:26;94645.28;;;10.26;25.79
21828;BME280;11076;47.942;11.804;2024-02-21T11:20:36;94637.97;;;10.51;25.31
21828;BME280;11076;47.942;11.804;2024-02-21T11:25:39;94619.75;;;10.46;25.16
21828;BME280;11076;47.942;11.804;2024-02-21T11:30:41;94601.25;;;10.72;25.20
21828;BME280;11076;47.942;11.804;2024-02-21T11:35:45;94584.03;;;10.96;25.34
21828;BME280;11076;47.942;11.804;2024-02-21T11:40:48;94573.34;;;11.05;25.16
21828;BME280;11076;47.942;11.804;2024-02-21T11:45:58;94562.66;;;11.27;24.10
21828;BME280;11076;47.942;11.804;2024-02-21T11:51:01;94549.19;;;11.36;25.23
21828;BME280;11076;47.942;11.804;2024-02-21T11:56:06;94546.66;;;11.58;26.08
21828;BME280;11076;47.942;11.804;2024-02-21T12:01:09;94526.06;;;11.66;25.94
21828;BME280;11076;47.942;11.804;2024-02-21T12:06:11;94526.75;;;11.58;25.96
21828;BME280;11076;47.942;11.804;2024-02-21T12:11:21;94525.06;;;11.43;26.00
21828;BME280;11076;47.942;11.804;2024-02-21T12:16:24;94514.66;;;11.64;25.93
21828;BME280;11076;47.942;11.804;2024-02-21T12:21:29;94499.66;;;11.80;25.88
21828;BME280;11076;47.942;11.804;2024-02-21T12:26:32;94495.16;;;11.90;25.49
21828;BME280;11076;47.942;11.804;2024-02-21T12:31:36;94493.03;;;12.00;25.57
21828;BME280;11076;47.942;11.804;2024-02-21T12:36:45;94481.78;;;11.88;25.33
21828;BME280;11076;47.942;11.804;2024-02-21T12:41:50;94467.97;;;11.66;25.83
21828;BME280;11076;47.942;11.804;2024-02-21T12:46:53;94454.84;;;11.68;25.70
21828;BME280;11076;47.942;11.804;2024-02-21T12:51:56;94452.28;;;11.71;25.22
21828;BME280;11076;47.942;11.804;2024-02-21T12:56:59;94439.31;;;11.82;25.58
21828;BME280;11076;47.942;11.804;2024-02-21T13:02:05;94421.84;;;12.11;25.32
21828;BME280;11076;47.942;11.804;2024-02-21T13:07:08;94410.38;;;11.81;25.20
21828;BME280;11076;47.942;11.804;2024-02-21T13:12:11;94405.22;;;11.66;25.74
21828;BME280;11076;47.942;11.804;2024-02-21T13:17:14;94396.47;;;12.10;25.65
21828;BME280;11076;47.942;11.804;2024-02-21T13:22:18;94387.47;;;12.10;25.60
21828;BME280;11076;47.942;11.804;2024-02-21T13:27:24;94368.75;;;11.89;25.95
21828;BME280;11076;47.942;11.804;2024-02-21T13:32:26;94364.75;;;11.54;26.36
21828;BME280;11076;47.942;11.804;2024-02-21T13:37:29;94356.69;;;11.62;26.19
21828;BME280;11076;47.942;11.804;2024-02-21T13:42:32;94351.59;;;11.42;26.42
21828;BME280;11076;47.942;11.804;2024-02-21T13:47:34;94343.06;;;11.30;26.13
21828;BME280;11076;47.942;11.804;2024-02-21T13:52:38;94331.59;;;11.47;26.03
21828;BME280;11076;47.942;11.804;2024-02-21T13:57:41;94327.31;;;11.27;26.62
21828;BME280;11076;47.942;11.804;2024-02-21T14:02:44;94326.28;;;11.09;26.47
21828;BME280;11076;47.942;11.804;2024-02-21T14:07:46;94311.16;;;11.16;26.56
21828;BME280;11076;47.942;11.804;2024-02-21T14:12:49;94299.03;;;11.22;27.00
21828;BME280;11076;47.942;11.804;2024-02-21T14:17:52;94297.31;;;11.27;26.60
21828;BME280;11076;47.942;11.804;2024-02-21T14:22:54;94284.91;;;11.20;26.71
21828;BME280;11076;47.942;11.804;2024-02-21T14:27:57;94284.69;;;11.17;27.12
21828;BME280;11076;47.942;11.804;2024-02-21T14:33:00;94280.31;;;11.02;27.31
21828;BME280;11076;47.942;11.804;2024-02-21T14:38:02;94270.56;;;10.82;27.54
21828;BME280;11076;47.942;11.804;2024-02-21T14:43:05;94259.34;;;10.83;27.60
21828;BME280;11076;47.942;11.804;2024-02-21T14:48:07;94254.00;;;10.78;27.86
21828;BME280;11076;47.942;11.804;2024-02-21T14:53:10;94252.75;;;10.71;27.94
21828;BME280;11076;47.942;11.804;2024-02-21T14:58:13;94240.22;;;10.70;27.79
21828;BME280;11076;47.942;11.804;2024-02-21T15:03:18;94247.78;;;10.59;28.25
21828;BME280;11076;47.942;11.804;2024-02-21T15:08:23;94241.38;;;10.50;28.67
21828;BME280;11076;47.942;11.804;2024-02-21T15:13:26;94233.81;;;10.47;28.33
21828;BME280;11076;47.942;11.804;2024-02-21T15:18:28;94234.44;;;10.57;28.66
21828;BME280;11076;47.942;11.804;2024-02-21T15:23:31;94242.72;;;10.52;28.58
21828;BME280;11076;47.942;11.804;2024-02-21T15:28:33;94226.25;;;10.24;29.39
21828;BME280;11076;47.942;11.804;2024-02-21T15:33:36;94232.03;;;9.80;29.84
21828;BME280;11076;47.942;11.804;2024-02-21T15:38:39;94228.47;;;9.60;30.17
21828;BME280;11076;47.942;11.804;2024-02-21T15:43:42;94220.16;;;9.52;30.06
21828;BME280;11076;47.942;11.804;2024-02-21T15:48:45;94222.59;;;9.29;30.06
21828;BME280;11076;47.942;11.804;2024-02-21T15:53:48;94224.09;;;9.16;30.20
21828;BME280;11076;47.942;11.804;2024-02-21T15:58:51;94221.59;;;8.96;30.55
21828;BME280;11076;47.942;11.804;2024-02-21T16:03:53;94219.81;;;8.81;30.99
21828;BME280;11076;47.942;11.804;2024-02-21T16:08:58;94207.84;;;8.53;31.33
21828;BME280;11076;47.942;11.804;2024-02-21T16:14:01;94209.84;;;8.42;31.40
21828;BME280;11076;47.942;11.804;2024-02-21T16:19:06;94206.19;;;8.27;31.44
21828;BME280;11076;47.942;11.804;2024-02-21T16:24:09;94197.44;;;7.96;31.56
21828;BME280;11076;47.942;11.804;2024-02-21T16:29:11;94195.41;;;7.78;31.91
21828;BME280;11076;47.942;11.804;2024-02-21T16:34:14;94191.91;;;7.72;31.67
21828;BME280;11076;47.942;11.804;2024-02-21T16:39:18;94189.84;;;7.54;31.95
21828;BME280;11076;47.942;11.804;2024-02-21T16:44:20;94194.38;;;7.63;31.99
21828;BME280;11076;47.942;11.804;2024-02-21T16:49:23;94185.75;;;7.51;32.33
21828;BME280;11076;47.942;11.804;2024-02-21T16:54:25;94191.66;;;7.03;33.36
21828;BME280;11076;47.942;11.804;2024-02-21T16:59:28;94180.56;;;7.05;33.78
21828;BME280;11076;47.942;11.804;2024-02-21T17:04:31;94173.53;;;6.94;33.40
21828;BME280;11076;47.942;11.804;2024-02-21T17:09:34;94177.31;;;6.98;33.01
21828;BME280;11076;47.942;11.804;2024-02-21T17:14:38;94171.72;;;6.63;33.30
21828;BME280;11076;47.942;11.804;2024-02-21T17:19:42;94169.31;;;6.41;33.62
21828;BME280;11076;47.942;11.804;2024-02-21T17:24:44;94163.91;;;6.31;33.80
21828;BME280;11076;47.942;11.804;2024-02-21T17:29:47;94156.63;;;5.96;34.38
21828;BME280;11076;47.942;11.804;2024-02-21T17:34:49;94151.75;;;6.08;34.36
21828;BME280;11076;47.942;11.804;2024-02-21T17:39:52;94154.47;;;6.13;34.04
21828;BME280;11076;47.942;11.804;2024-02-21T17:44:55;94141.47;;;5.79;34.38
21828;BME280;11076;47.942;11.804;2024-02-21T17:49:58;94139.28;;;5.61;34.44
21828;BME280;11076;47.942;11.804;2024-02-21T17:55:00;94133.59;;;5.57;34.39
21828;BME280;11076;47.942;11.804;2024-02-21T18:00:06;94127.66;;;5.45;34.41
21828;BME280;11076;47.942;11.804;2024-02-21T18:05:16;94123.56;;;5.27;34.59
21828;BME280;11076;47.942;11.804;2024-02-21T18:10:19;94112.72;;;5.22;34.63
21828;BME280;11076;47.942;11.804;2024-02-21T18:15:21;94107.06;;;5.23;34.40
21828;BME280;11076;47.942;11.804;2024-02-21T18:20:24;94094.09;;;5.25;34.46
21828;BME280;11076;47.942;11.804;2024-02-21T18:25:27;94089.47;;;5.05;34.54
21828;BME280;11076;47.942;11.804;2024-02-21T18:30:29;94078.44;;;5.17;34.44
21828;BME280;11076;47.942;11.804;2024-02-21T18:35:32;94079.44;;;5.01;34.61
21828;BME280;11076;47.942;11.804;2024-02-21T18:40:34;94064.91;;;5.22;34.26
21828;BME280;11076;47.942;11.804;2024-02-21T18:45:37;94068.34;;;4.82;34.87
21828;BME280;11076;47.942;11.804;2024-02-21T18:50:39;94056.50;;;5.08;34.57
21828;BME280;11076;47.942;11.804;2024-02-21T18:55:42;94046.50;;;4.94;34.97
21828;BME280;11076;47.942;11.804;2024-02-21T19:00:44;94046.53;;;5.09;35.03
21828;BME280;11076;47.942;11.804;2024-02-21T19:05:47;94037.06;;;5.06;35.01
21828;BME280;11076;47.942;11.804;2024-02-21T19:10:49;94027.91;;;5.38;34.98
21828;BME280;11076;47.942;11.804;2024-02-21T19:15:52;94026.31;;;5.47;34.41
21828;BME280;11076;47.942;11.804;2024-02-21T19:20:54;94022.50;;;5.28;34.94
21828;BME280;11076;47.942;11.804;2024-02-21T19:25:57;94017.09;;;5.48;34.71
21828;BME280;11076;47.942;11.804;2024-02-21T19:30:59;94023.06;;;5.45;34.81
21828;BME280;11076;47.942;11.804;2024-02-21T19:36:02;94013.06;;;5.25;34.98
21828;BME280;11076;47.942;11.804;2024-02-21T19:41:05;94002.22;;;5.00;35.11
21828;BME280;11076;47.942;11.804;2024-02-21T19:46:10;94002.50;;;5.03;35.38
21828;BME280;11076;47.942;11.804;2024-02-21T19:51:15;93994.13;;;4.89;35.63
21828;BME280;11076;47.942;11.804;2024-02-21T19:56:17;93995.16;;;4.78;35.83
21828;BME280;11076;47.942;11.804;2024-02-21T20:01:20;93985.50;;;5.08;35.76
21828;BME280;11076;47.942;11.804;2024-02-21T20:06:23;93990.38;;;5.32;35.88
21828;BME280;11076;47.942;11.804;2024-02-21T20:11:25;93977.91;;;5.72;35.53
21828;BME280;11076;47.942;11.804;2024-02-21T20:16:31;93967.59;;;5.99;35.39
21828;BME280;11076;47.942;11.804;2024-02-21T20:21:34;93969.19;;;6.11;35.13
21828;BME280;11076;47.942;11.804;2024-02-21T20:26:39;93959.97;;;6.12;35.57
21828;BME280;11076;47.942;11.804;2024-02-21T20:31:46;93957.53;;;6.15;35.59
21828;BME280;11076;47.942;11.804;2024-02-21T20:36:49;93941.03;;;6.17;35.46
21828;BME280;11076;47.942;11.804;2024-02-21T20:41:52;93941.88;;;6.07;35.62
21828;BME280;11076;47.942;11.804;2024-02-21T20:46:55;93940.91;;;6.42;35.11
21828;BME280;11076;47.942;11.804;2024-02-21T20:51:57;93929.91;;;6.23;35.25
21828;BME280;11076;47.942;11.804;2024-02-21T20:57:00;93930.75;;;6.14;35.38
21828;BME280;11076;47.942;11.804;2024-02-21T21:02:04;93929.09;;;6.23;35.22
21828;BME280;11076;47.942;11.804;2024-02-21T21:07:07;93932.00;;;6.37;35.10
21828;BME280;11076;47.942;11.804;2024-02-21T21:12:09;93924.63;;;6.47;35.00
21828;BME280;11076;47.942;11.804;2024-02-21T21:17:12;93921.44;;;6.40;35.30
21828;BME280;11076;47.942;11.804;2024-02-21T21:22:14;93908.94;;;6.49;35.34
21828;BME280;11076;47.942;11.804;2024-02-21T21:27:17;93890.56;;;6.46;35.29
21828;BME280;11076;47.942;11.804;2024-02-21T21:32:19;93893.28;;;6.41;35.47
21828;BME280;11076;47.942;11.804;2024-02-21T21:37:21;93875.31;;;6.56;35.15
21828;BME280;11076;47.942;11.804;2024-02-21T21:42:24;93877.09;;;6.81;35.03
21828;BME280;11076;47.942;11.804;2024-02-21T21:47:27;93866.06;;;6.62;35.25
21828;BME280;11076;47.942;11.804;2024-02-21T21:52:29;93875.78;;;6.68;35.19
21828;BME280;11076;47.942;11.804;2024-02-21T21:57:33;93860.59;;;6.72;35.47
21828;BME280;11076;47.942;11.804;2024-02-21T22:02:35;93868.69;;;6.77;35.39
21828;BME280;11076;47.942;11.804;2024-02-21T22:07:37;93871.25;;;6.98;35.13
21828;BME280;11076;47.942;11.804;2024-02-21T22:12:40;93862.59;;;6.96;35.38
21828;BME280;11076;47.942;11.804;2024-02-21T22:17:42;93855.22;;;7.06;35.26
21828;BME280;11076;47.942;11.804;2024-02-21T22:22:45;93857.44;;;6.60;35.90
21828;BME280;11076;47.942;11.804;2024-02-21T22:27:47;93853.50;;;6.42;36.39
21828;BME280;11076;47.942;11.804;2024-02-21T22:32:49;93854.16;;;6.23;36.75
21828;BME280;11076;47.942;11.804;2024-02-21T22:37:53;93840.22;;;6.45;36.30
21828;BME280;11076;47.942;11.804;2024-02-21T22:42:56;93835.91;;;6.44;36.18
21828;BME280;11076;47.942;11.804;2024-02-21T22:47:59;93820.75;;;6.43;35.89
21828;BME280;11076;47.942;11.804;2024-02-21T22:53:02;93834.25;;;6.48;35.76
21828;BME280;11076;47.942;11.804;2024-02-21T22:58:04;93833.75;;;6.41;36.12
21828;BME280;11076;47.942;11.804;2024-02-21T23:03:07;93806.59;;;6.52;35.72
21828;BME280;11076;47.942;11.804;2024-02-21T23:08:12;93800.47;;;6.75;35.55
21828;BME280;11076;47.942;11.804;2024-02-21T23:13:15;93785.34;;;6.69;35.40
21828;BME280;11076;47.942;11.804;2024-02-21T23:18:17;93782.75;;;6.59;35.49
21828;BME280;11076;47.942;11.804;2024-02-21T23:23:20;93775.34;;;6.35;36.05
21828;BME280;11076;47.942;11.804;2024-02-21T23:28:22;93769.44;;;6.28;36.49
21828;BME280;11076;47.942;11.804;2024-02-21T23:33:25;93754.13;;;6.47;36.00
21828;BME280;11076;47.942;11.804;2024-02-21T23:38:35;93751.09;;;6.20;36.55
21828;BME280;11076;47.942;11.804;2024-02-21T23:43:42;93738.75;;;6.08;36.80
21828;BME280;11076;47.942;11.804;2024-02-21T23:48:44;93735.09;;;6.28;36.44
21828;BME280;11076;47.942;11.804;2024-02-21T23:53:47;93717.81;;;6.54;35.96
21828;BME280;11076;47.942;11.804;2024-02-21T23:58:49;93711.84;;;6.57;35.48
